Time;durP1;ratioP1;P1;durP2;ratioP2;P2;SDS_P1;SDS_P2;PMS_P1;PMS_P2;Temp;Humidity;BMP_temperature;BMP_pressure;BME280_temperature;BME280_humidity;BME280_pressure;Samples;Min_cycle;Max_cycle;Signal;HPM_P1;HPM_P2
2022/03/19 00:00:15;;;;;;;99.80;55.37;;;;;;;2.96;100.00;97586.50;6072395;23;20161;-80
2022/03/19 00:02:40;;;;;;;93.50;54.70;;;;;;;2.84;100.00;97597.19;6095966;23;20153;-79
2022/03/19 00:05:07;;;;;;;98.23;56.83;;;;;;;2.78;100.00;97587.13;6117144;23;20167;-79
2022/03/19 00:07:33;;;;;;;96.97;56.50;;;;;;;2.82;100.00;97593.81;6124073;23;20188;-78
2022/03/19 00:09:58;;;;;;;99.40;56.20;;;;;;;2.81;100.00;97594.69;6099853;23;20159;-78
2022/03/19 00:12:23;;;;;;;90.13;54.50;;;;;;;2.81;100.00;97599.84;6123265;23;20161;-78
2022/03/19 00:14:48;;;;;;;96.50;54.87;;;;;;;2.80;100.00;97603.28;6099727;23;20237;-78
2022/03/19 00:17:14;;;;;;;94.57;54.43;;;;;;;2.79;100.00;97588.78;6099843;23;20176;-77
2022/03/19 00:19:40;;;;;;;92.07;55.03;;;;;;;2.71;100.00;97604.44;6124584;23;20180;-76
2022/03/19 00:22:06;;;;;;;94.70;56.90;;;;;;;2.75;100.00;97592.34;6147732;23;20145;-77
2022/03/19 00:24:31;;;;;;;101.90;56.70;;;;;;;2.86;100.00;97597.13;6148287;23;20203;-76
2022/03/19 00:26:57;;;;;;;91.63;54.10;;;;;;;2.75;100.00;97589.78;6123777;23;20172;-76
2022/03/19 00:29:22;;;;;;;94.87;55.63;;;;;;;2.73;100.00;97581.28;6122875;23;20163;-78
2022/03/19 00:31:47;;;;;;;98.43;55.97;;;;;;;2.78;100.00;97584.53;6097010;23;20144;-78
2022/03/19 00:34:13;;;;;;;101.93;56.07;;;;;;;2.86;100.00;97581.72;6123208;23;20173;-80
2022/03/19 00:36:38;;;;;;;95.80;54.13;;;;;;;2.84;99.92;97585.19;6083990;23;20246;-80
2022/03/19 00:39:05;;;;;;;96.00;55.70;;;;;;;2.88;99.76;97583.34;6102614;23;20163;-80
2022/03/19 00:41:30;;;;;;;94.73;54.93;;;;;;;2.83;100.00;97582.69;6100724;23;20232;-80
2022/03/19 00:43:55;;;;;;;95.87;55.57;;;;;;;2.82;99.91;97580.97;6102334;23;20647;-81
2022/03/19 00:46:21;;;;;;;96.07;54.27;;;;;;;2.79;99.77;97587.06;6078107;23;20195;-80
2022/03/19 00:48:46;;;;;;;91.53;55.13;;;;;;;2.76;99.82;97582.03;6101745;23;20156;-81
2022/03/19 00:51:11;;;;;;;94.57;53.80;;;;;;;2.79;100.00;97570.81;6099414;23;20152;-80
2022/03/19 00:53:37;;;;;;;97.03;54.80;;;;;;;2.81;99.38;97575.00;6075472;23;20494;-80
2022/03/19 00:56:02;;;;;;;94.10;53.07;;;;;;;2.75;100.00;97566.69;6075105;23;20168;-80
2022/03/19 00:58:28;;;;;;;97.77;56.80;;;;;;;2.76;99.42;97573.50;6099455;23;20168;-80
2022/03/19 01:00:53;;;;;;;93.40;54.23;;;;;;;2.71;99.85;97570.25;6075079;23;20647;-80
2022/03/19 01:03:18;;;;;;;90.00;54.40;;;;;;;2.70;99.92;97568.56;6098007;23;20156;-79
2022/03/19 01:05:43;;;;;;;92.40;52.47;;;;;;;2.65;100.00;97568.72;6073078;23;20192;-79
2022/03/19 01:08:11;;;;;;;92.47;53.10;;;;;;;2.67;99.87;97571.25;6096938;23;20165;-79
2022/03/19 01:10:36;;;;;;;87.40;53.40;;;;;;;2.67;99.74;97566.13;6073338;23;20611;-80
2022/03/19 01:13:03;;;;;;;93.63;54.17;;;;;;;2.68;99.89;97560.09;6073409;23;20163;-80
2022/03/19 01:15:29;;;;;;;85.70;53.37;;;;;;;2.69;98.91;97564.31;6098534;23;20176;-80
2022/03/19 01:17:55;;;;;;;87.10;54.00;;;;;;;2.58;99.87;97566.41;6097874;23;20904;-79
2022/03/19 01:20:21;;;;;;;87.30;52.93;;;;;;;2.53;100.00;97562.25;6074177;23;20231;-80
2022/03/19 01:22:47;;;;;;;91.00;53.90;;;;;;;2.52;99.77;97563.13;6098111;23;20200;-81
2022/03/19 01:25:13;;;;;;;90.57;53.63;;;;;;;2.64;99.48;97555.94;6098579;23;20211;-81
2022/03/19 01:27:38;;;;;;;90.00;53.07;;;;;;;2.59;99.60;97558.66;6074345;23;20188;-80
2022/03/19 01:30:06;;;;;;;94.30;53.90;;;;;;;2.63;99.59;97556.81;6074433;23;20176;-80
2022/03/19 01:32:32;;;;;;;88.50;52.53;;;;;;;2.53;99.33;97553.72;6074447;23;20156;-80
2022/03/19 01:34:58;;;;;;;93.07;53.83;;;;;;;2.54;99.34;97551.09;6122512;23;20716;-80
2022/03/19 01:37:23;;;;;;;84.60;53.20;;;;;;;2.48;99.68;97543.63;6073910;23;20157;-79
2022/03/19 01:39:49;;;;;;;90.90;55.03;;;;;;;2.48;99.88;97550.47;6098642;23;20153;-80
2022/03/19 01:42:25;;;;;;;86.80;54.20;;;;;;;2.52;99.32;97552.03;6097462;23;20220;-80
2022/03/19 01:44:52;;;;;;;89.30;52.70;;;;;;;2.50;99.07;97543.56;6098313;23;20172;-80
2022/03/19 01:47:17;;;;;;;89.80;53.97;;;;;;;2.66;98.71;97555.00;6074086;23;20185;-81
2022/03/19 01:49:42;;;;;;;88.83;53.33;;;;;;;2.73;97.63;97545.38;6099141;23;20160;-80
2022/03/19 01:52:08;;;;;;;89.17;54.20;;;;;;;2.68;97.55;97545.53;6072963;23;20216;-80
2022/03/19 01:54:36;;;;;;;87.97;50.87;;;;;;;2.66;97.20;97539.63;6122514;23;20192;-81
2022/03/19 01:57:02;;;;;;;93.53;52.47;;;;;;;2.64;97.53;97541.38;6098531;23;20141;-80
2022/03/19 01:59:31;;;;;;;94.20;53.33;;;;;;;2.73;96.89;97542.78;6098809;23;20215;-80
2022/03/19 02:01:56;;;;;;;87.70;50.97;;;;;;;2.51;97.89;97538.38;6073251;23;20168;-80
2022/03/19 02:04:22;;;;;;;90.87;53.17;;;;;;;2.42;98.06;97531.00;6098233;23;20630;-79
2022/03/19 02:06:47;;;;;;;84.27;51.20;;;;;;;2.47;97.82;97531.69;6098515;23;20180;-81
2022/03/19 02:09:13;;;;;;;78.97;51.17;;;;;;;2.45;98.03;97537.75;6074540;23;20239;-80
2022/03/19 02:11:38;;;;;;;83.97;50.80;;;;;;;2.46;97.71;97534.28;6073071;23;20184;-80
2022/03/19 02:14:04;;;;;;;79.73;48.77;;;;;;;2.43;98.04;97530.09;6098350;23;20184;-78
2022/03/19 02:16:29;;;;;;;82.17;49.57;;;;;;;2.42;97.38;97532.72;6074130;23;20149;-80
2022/03/19 02:19:01;;;;;;;88.80;51.80;;;;;;;2.40;97.80;97532.78;6098200;23;20184;-80
2022/03/19 02:21:40;;;;;;;78.17;49.57;;;;;;;2.42;98.00;97535.28;6122167;23;20218;-80
2022/03/19 02:26:50;;;;;;;86.93;51.50;;;;;;;2.37;97.77;97529.44;6098080;23;20235;-81
2022/03/19 02:29:15;;;;;;;83.57;51.13;;;;;;;2.36;97.33;97527.78;6074152;23;20161;-79
2022/03/19 02:31:42;;;;;;;84.73;49.97;;;;;;;2.24;98.27;97527.28;6072934;23;20168;-80
2022/03/19 02:34:10;;;;;;;82.40;50.77;;;;;;;2.37;97.66;97529.44;6097485;23;20556;-80
2022/03/19 02:36:37;;;;;;;87.03;50.60;;;;;;;2.35;97.70;97521.81;6097307;23;20164;-80
2022/03/19 02:39:12;;;;;;;83.40;51.47;;;;;;;2.34;97.26;97512.44;6122240;23;20157;-80
2022/03/19 02:41:45;;;;;;;84.93;50.30;;;;;;;2.31;97.02;97511.72;6072951;23;20167;-80
2022/03/19 02:44:11;;;;;;;85.87;49.10;;;;;;;2.30;97.02;97508.31;6073045;23;20176;-79
2022/03/19 02:46:38;;;;;;;87.53;51.00;;;;;;;2.30;97.38;97515.16;6097675;23;20187;-81
2022/03/19 02:49:03;;;;;;;85.57;48.23;;;;;;;2.27;97.16;97511.78;6099296;23;20153;-79
2022/03/19 02:51:29;;;;;;;86.37;51.13;;;;;;;2.32;97.03;97514.22;6072296;23;20207;-80
2022/03/19 02:53:54;;;;;;;78.50;49.60;;;;;;;2.28;97.02;97522.88;6072938;23;20189;-79
2022/03/19 02:56:19;;;;;;;77.47;49.33;;;;;;;2.34;96.31;97516.75;6073199;23;20164;-80
2022/03/19 02:58:44;;;;;;;81.63;49.40;;;;;;;2.34;96.42;97517.56;6121891;23;20157;-79
2022/03/19 03:01:10;;;;;;;81.13;48.67;;;;;;;2.31;96.23;97511.72;6074044;23;20220;-79
2022/03/19 03:03:35;;;;;;;76.77;47.43;;;;;;;2.34;95.99;97517.56;6073651;23;20161;-80
2022/03/19 03:06:00;;;;;;;77.20;48.13;;;;;;;2.28;96.35;97515.19;6074455;23;20184;-80
2022/03/19 03:08:26;;;;;;;73.10;47.63;;;;;;;2.27;96.32;97511.78;6097187;23;20157;-79
2022/03/19 03:10:51;;;;;;;74.80;47.40;;;;;;;2.30;96.29;97513.44;6096446;23;20161;-79
2022/03/19 03:13:16;;;;;;;80.83;47.87;;;;;;;2.27;96.29;97510.97;6071145;23;20163;-79
2022/03/19 03:15:41;;;;;;;76.87;47.33;;;;;;;2.25;96.19;97517.88;6095528;23;20172;-79
2022/03/19 03:18:07;;;;;;;77.13;47.07;;;;;;;2.25;96.24;97520.44;6072147;23;20634;-79
2022/03/19 03:20:33;;;;;;;74.20;46.97;;;;;;;2.26;95.69;97511.84;6120867;23;20188;-80
2022/03/19 03:22:58;;;;;;;79.80;47.07;;;;;;;2.21;95.88;97517.16;6071435;23;20268;-78
2022/03/19 03:25:23;;;;;;;71.43;46.23;;;;;;;2.23;95.63;97514.53;6072350;23;20184;-79
2022/03/19 03:27:49;;;;;;;74.73;46.10;;;;;;;2.14;95.76;97514.81;6096370;23;20156;-78
2022/03/19 03:30:18;;;;;;;81.27;49.60;;;;;;;2.22;95.50;97517.97;6072311;23;20174;-80
2022/03/19 03:32:43;;;;;;;76.87;46.10;;;;;;;2.20;95.90;97517.16;6074630;23;20498;-79
2022/03/19 03:35:09;;;;;;;76.47;46.67;;;;;;;2.25;95.56;97517.88;6073923;23;20184;-77
2022/03/19 03:37:34;;;;;;;78.83;45.83;;;;;;;2.14;96.01;97509.69;6073097;23;20223;-77
2022/03/19 03:39:59;;;;;;;77.13;45.33;;;;;;;2.04;96.13;97513.44;6098368;23;20152;-79
2022/03/19 03:42:25;;;;;;;78.23;47.63;;;;;;;2.02;96.39;97510.88;6097610;23;20164;-79
2022/03/19 03:44:54;;;;;;;76.27;46.60;;;;;;;1.91;96.53;97507.81;6098763;23;20176;-79
2022/03/19 03:47:19;;;;;;;82.17;46.57;;;;;;;1.99;96.28;97508.44;6075277;23;20204;-79
2022/03/19 03:49:44;;;;;;;75.17;44.83;;;;;;;2.01;96.12;97498.13;6098810;23;20169;-78
2022/03/19 03:52:09;;;;;;;74.67;45.73;;;;;;;1.97;96.44;97508.50;6097796;23;20163;-79
2022/03/19 03:54:35;;;;;;;74.17;45.47;;;;;;;2.02;96.18;97498.06;6073806;23;20744;-81
2022/03/19 03:57:00;;;;;;;74.37;45.33;;;;;;;1.97;96.02;97498.25;6075063;23;20149;-78
2022/03/19 03:59:26;;;;;;;73.83;45.03;;;;;;;1.94;96.40;97498.34;6099026;23;20157;-79
2022/03/19 04:01:51;;;;;;;73.70;44.07;;;;;;;1.89;96.59;97496.78;6098128;23;20473;-79
2022/03/19 04:04:16;;;;;;;75.33;44.47;;;;;;;2.06;95.10;97496.28;6074481;23;20231;-78
2022/03/19 04:06:41;;;;;;;76.83;44.90;;;;;;;2.04;95.41;97488.63;6074326;23;20195;-78
2022/03/19 04:09:07;;;;;;;72.43;46.03;;;;;;;2.05;94.93;97499.72;6098676;23;20583;-78
2022/03/19 04:11:32;;;;;;;70.37;44.03;;;;;;;2.05;94.54;97487.75;6073605;23;20171;-79
2022/03/19 04:13:59;;;;;;;73.17;44.90;;;;;;;2.07;94.63;97487.69;6121465;23;20228;-78
2022/03/19 04:16:25;;;;;;;70.43;44.17;;;;;;;2.04;94.42;97482.69;6098246;23;20163;-78
2022/03/19 04:18:50;;;;;;;73.67;44.60;;;;;;;2.12;94.21;97483.25;6097173;23;20236;-80
2022/03/19 04:21:15;;;;;;;69.47;42.77;;;;;;;2.10;93.98;97473.06;6098714;23;20174;-78
2022/03/19 04:23:40;;;;;;;74.53;43.50;;;;;;;2.09;93.97;97480.78;6100114;23;20210;-79
2022/03/19 04:26:06;;;;;;;75.37;44.13;;;;;;;2.01;94.29;97478.47;6073592;23;20259;-78
2022/03/19 04:28:32;;;;;;;73.10;44.47;;;;;;;1.95;94.66;97479.50;6098163;23;20161;-80
2022/03/19 04:30:57;;;;;;;72.27;44.43;;;;;;;2.02;94.24;97484.44;6098247;23;20169;-79
2022/03/19 04:33:22;;;;;;;69.00;43.60;;;;;;;1.99;94.31;97482.81;6071704;23;20164;-77
2022/03/19 04:38:31;;;;;;;74.40;45.87;;;;;;;1.94;94.43;97477.84;6097572;23;20639;-78
2022/03/19 04:40:58;;;;;;;71.23;45.03;;;;;;;1.92;94.33;97481.31;6072187;23;20165;-77
2022/03/19 04:43:23;;;;;;;72.97;44.57;;;;;;;1.83;94.58;97485.00;6096533;23;20168;-78
2022/03/19 04:45:49;;;;;;;72.47;43.90;;;;;;;1.84;95.02;97486.66;6097429;23;20531;-79
2022/03/19 04:48:14;;;;;;;73.53;44.77;;;;;;;1.86;94.65;97486.66;6098041;23;20161;-78
2022/03/19 04:50:42;;;;;;;68.73;43.90;;;;;;;1.79;95.14;97480.88;6097965;23;20179;-81
2022/03/19 04:53:08;;;;;;;70.70;44.27;;;;;;;1.74;95.34;97480.16;6096895;23;20502;-78
2022/03/19 04:55:34;;;;;;;70.50;45.23;;;;;;;1.73;95.65;97482.78;6097533;23;20188;-79
2022/03/19 04:57:59;;;;;;;71.20;43.13;;;;;;;1.75;95.50;97476.72;6073259;23;20619;-80
2022/03/19 05:00:25;;;;;;;70.93;44.47;;;;;;;1.64;95.23;97474.47;6096205;23;20184;-78
2022/03/19 05:02:50;;;;;;;74.30;45.13;;;;;;;1.66;95.43;97477.00;6095855;23;20190;-80
2022/03/19 05:05:16;;;;;;;76.23;46.17;;;;;;;1.64;95.55;97482.16;6072466;23;20176;-80
2022/03/19 05:07:42;;;;;;;75.00;45.87;;;;;;;1.61;95.76;97477.16;6072575;23;20262;-80
2022/03/19 05:12:52;;;;;;;68.77;44.40;;;;;;;1.64;95.30;97477.03;6097454;23;20223;-80
2022/03/19 05:15:18;;;;;;;73.63;44.47;;;;;;;1.69;95.38;97469.22;6097227;23;20181;-79
2022/03/19 05:17:44;;;;;;;73.77;44.50;;;;;;;1.70;95.28;97464.06;6049748;23;20686;-78
2022/03/19 05:20:10;;;;;;;72.57;44.47;;;;;;;1.68;94.96;97463.28;6122252;23;20468;-79
2022/03/19 05:22:36;;;;;;;70.53;43.97;;;;;;;1.67;95.16;97470.97;6072391;23;20552;-79
2022/03/19 05:25:03;;;;;;;77.80;45.70;;;;;;;1.66;95.22;97461.63;6073155;23;20222;-79
2022/03/19 05:27:28;;;;;;;73.53;43.50;;;;;;;1.66;95.02;97461.63;6097260;23;20244;-79
2022/03/19 05:29:54;;;;;;;75.87;46.07;;;;;;;1.67;95.01;97464.13;6097319;23;20152;-79
2022/03/19 05:32:20;;;;;;;74.37;44.43;;;;;;;1.70;94.55;97463.22;6096578;23;20152;-80
2022/03/19 05:34:45;;;;;;;72.53;44.70;;;;;;;1.64;94.57;97466.78;6097354;23;20227;-78
2022/03/19 05:37:11;;;;;;;70.73;44.67;;;;;;;1.56;95.11;97453.38;6097219;23;20157;-79
2022/03/19 05:39:36;;;;;;;78.30;45.10;;;;;;;1.53;94.81;97460.31;6097071;23;20611;-80
2022/03/19 05:42:03;;;;;;;72.90;45.07;;;;;;;1.54;95.21;97460.28;6095863;23;20153;-78
2022/03/19 05:44:28;;;;;;;71.77;43.33;;;;;;;1.58;94.54;97466.13;6072474;23;20192;-80
2022/03/19 05:46:54;;;;;;;71.77;43.37;;;;;;;1.58;94.59;97466.97;6073807;23;20188;-79
2022/03/19 05:49:19;;;;;;;71.60;42.30;;;;;;;1.61;94.78;97455.81;6096884;23;20152;-78
2022/03/19 05:51:45;;;;;;;78.83;43.80;;;;;;;1.58;94.37;97468.69;6094707;23;20187;-79
2022/03/19 05:54:10;;;;;;;72.00;43.67;;;;;;;1.60;94.01;97460.09;6095579;23;20638;-79
2022/03/19 05:56:36;;;;;;;69.73;44.50;;;;;;;1.66;94.41;97466.75;6071727;23;20156;-78
2022/03/19 05:59:03;;;;;;;73.20;42.20;;;;;;;1.61;94.03;97463.50;6071343;23;20200;-79
2022/03/19 06:01:28;;;;;;;73.70;44.17;;;;;;;1.63;93.70;97466.84;6070829;23;20216;-79
2022/03/19 06:03:54;;;;;;;69.00;44.03;;;;;;;1.68;93.93;97470.97;6095450;23;20172;-80
2022/03/19 06:06:20;;;;;;;72.47;44.43;;;;;;;1.65;93.65;97472.75;6095263;23;20184;-79
2022/03/19 06:08:45;;;;;;;75.47;45.03;;;;;;;1.71;93.33;97470.00;6095141;23;20507;-79
2022/03/19 06:11:10;;;;;;;68.67;42.77;;;;;;;1.87;92.90;97465.28;6070358;23;20214;-78
2022/03/19 06:13:36;;;;;;;71.77;43.20;;;;;;;1.87;92.79;97468.66;6096956;23;20160;-78
2022/03/19 06:16:02;;;;;;;72.97;43.57;;;;;;;1.88;92.70;97462.66;6072766;23;20199;-78
2022/03/19 06:18:27;;;;;;;68.73;43.03;;;;;;;1.97;91.70;97456.41;6074128;23;20204;-79
2022/03/19 06:20:52;;;;;;;67.27;42.23;;;;;;;1.96;91.74;97459.84;6099695;23;20153;-78
2022/03/19 06:23:18;;;;;;;71.00;42.20;;;;;;;2.05;91.10;97458.72;6072624;23;20167;-79
2022/03/19 06:25:43;;;;;;;69.37;43.57;;;;;;;2.16;90.83;97462.59;6072536;23;20199;-80
2022/03/19 06:28:08;;;;;;;69.70;43.57;;;;;;;2.28;90.34;97461.38;6098415;23;20215;-80
2022/03/19 06:30:37;;;;;;;69.63;41.10;;;;;;;2.31;89.69;97456.16;6074345;23;20155;-80
2022/03/19 06:33:06;;;;;;;65.17;40.10;;;;;;;2.34;89.92;97445.78;6073881;23;20195;-79
2022/03/19 06:38:15;;;;;;;68.03;41.63;;;;;;;2.36;89.04;97454.25;6098787;23;20610;-79
2022/03/19 06:40:41;;;;;;;67.27;40.43;;;;;;;2.42;89.45;97458.34;6072914;23;20165;-78
2022/03/19 06:43:06;;;;;;;67.00;41.53;;;;;;;2.49;88.63;97452.13;6099125;23;20157;-79
2022/03/19 06:45:31;;;;;;;73.17;43.13;;;;;;;2.43;88.63;97455.72;6075926;23;20183;-80
2022/03/19 06:47:57;;;;;;;68.10;40.73;;;;;;;2.58;87.64;97454.38;6075403;23;20172;-78
2022/03/19 06:50:22;;;;;;;69.53;41.73;;;;;;;2.54;87.50;97448.50;6100109;23;20161;-79
2022/03/19 06:52:47;;;;;;;66.63;40.47;;;;;;;2.57;87.52;97451.88;6099366;23;20488;-79
2022/03/19 06:55:12;;;;;;;67.53;41.47;;;;;;;2.64;87.37;97453.31;6100275;23;20184;-80
2022/03/19 06:57:38;;;;;;;64.10;39.53;;;;;;;2.77;86.72;97452.03;6125637;23;20227;-79
2022/03/19 07:00:04;;;;;;;63.43;39.67;;;;;;;2.70;86.62;97448.00;6078050;23;20160;-79
2022/03/19 07:02:29;;;;;;;64.53;40.50;;;;;;;2.70;85.75;97440.28;6076424;23;20157;-78
2022/03/19 07:04:54;;;;;;;64.80;40.43;;;;;;;2.90;86.39;97445.56;6099904;23;20177;-79
2022/03/19 07:07:19;;;;;;;63.43;40.07;;;;;;;2.99;85.21;97445.22;6101774;23;20180;-80
2022/03/19 07:09:45;;;;;;;62.07;39.13;;;;;;;2.97;85.20;97447.00;6078773;23;20160;-80
2022/03/19 07:12:11;;;;;;;62.10;38.33;;;;;;;3.02;84.75;97439.16;6126414;23;20553;-80
2022/03/19 07:14:37;;;;;;;59.77;38.40;;;;;;;3.13;84.35;97442.19;6129217;23;20183;-79
2022/03/19 07:17:03;;;;;;;60.40;38.97;;;;;;;3.07;83.89;97443.22;6119595;23;20164;-81
2022/03/19 07:19:29;;;;;;;63.87;39.60;;;;;;;3.09;84.45;97435.47;6121736;23;20152;-80
2022/03/19 07:21:54;;;;;;;63.63;40.43;;;;;;;3.23;83.46;97434.97;6117321;23;20156;-79
2022/03/19 07:24:19;;;;;;;61.50;38.20;;;;;;;3.10;83.12;97448.25;6103660;23;20629;-80
2022/03/19 07:26:45;;;;;;;58.67;38.47;;;;;;;3.10;83.35;97437.16;6074292;23;20189;-80
2022/03/19 07:29:10;;;;;;;61.60;38.07;;;;;;;3.17;83.35;97446.28;6127933;23;20169;-81
2022/03/19 07:31:35;;;;;;;60.77;38.97;;;;;;;3.34;82.91;97445.66;6103460;23;20172;-81
2022/03/19 07:34:01;;;;;;;61.77;37.83;;;;;;;3.27;83.25;97439.94;6104523;23;20173;-81
2022/03/19 07:36:26;;;;;;;61.77;39.27;;;;;;;3.42;82.75;97444.50;6105957;23;20164;-80
2022/03/19 07:38:51;;;;;;;58.70;38.77;;;;;;;3.45;82.09;97443.56;6132029;23;20516;-82
2022/03/19 07:44:01;;;;;;;59.77;37.87;;;;;;;3.59;81.59;97437.88;6107480;23;20231;-81
2022/03/19 07:46:27;;;;;;;61.07;38.47;;;;;;;3.53;80.60;97444.06;6081532;23;20188;-80
2022/03/19 07:48:52;;;;;;;59.40;38.07;;;;;;;3.70;80.27;97444.28;6105503;23;20158;-81
2022/03/19 07:51:18;;;;;;;59.10;38.17;;;;;;;3.75;80.01;97435.56;6104488;23;20163;-82
2022/03/19 07:53:45;;;;;;;58.23;37.07;;;;;;;3.75;79.59;97440.69;6107450;23;20804;-80
2022/03/19 07:56:10;;;;;;;55.00;36.00;;;;;;;3.90;79.04;97442.69;6081520;23;20223;-80
2022/03/19 07:58:35;;;;;;;54.43;35.33;;;;;;;4.04;79.05;97437.81;6080141;23;20251;-80
2022/03/19 08:01:01;;;;;;;57.67;35.63;;;;;;;3.99;79.27;97439.75;6075312;23;20164;-81
2022/03/19 08:03:26;;;;;;;55.70;36.03;;;;;;;4.10;77.65;97435.00;6080463;23;20590;-80
2022/03/19 08:05:51;;;;;;;56.63;35.37;;;;;;;4.13;77.98;97437.44;6101630;23;20182;-80
2022/03/19 08:08:17;;;;;;;51.63;37.33;;;;;;;4.11;77.50;97436.66;6081333;23;20158;-80
2022/03/19 08:10:43;;;;;;;53.40;34.40;;;;;;;4.25;77.47;97436.13;6104491;23;20160;-80
2022/03/19 08:13:09;;;;;;;56.97;35.97;;;;;;;4.14;76.39;97430.56;6105642;23;20177;-80
2022/03/19 08:15:37;;;;;;;50.67;33.50;;;;;;;4.10;75.85;97432.44;6080975;23;20295;-82
2022/03/19 08:18:02;;;;;;;49.00;32.00;;;;;;;4.09;75.14;97433.34;6107278;23;20161;-80
2022/03/19 08:20:28;;;;;;;52.03;33.67;;;;;;;4.37;75.79;97429.63;6082157;23;20738;-81
2022/03/19 08:22:53;;;;;;;47.43;33.17;;;;;;;4.43;75.28;97424.25;6081860;23;20157;-80
2022/03/19 08:25:19;;;;;;;51.83;31.40;;;;;;;4.40;72.69;97422.59;6104376;23;20180;-80
2022/03/19 08:27:45;;;;;;;47.73;29.47;;;;;;;4.21;71.68;97419.97;6103183;23;20280;-80
2022/03/19 08:30:11;;;;;;;47.67;31.20;;;;;;;4.29;70.90;97421.38;6079604;23;20164;-79
2022/03/19 08:32:36;;;;;;;46.93;29.13;;;;;;;4.34;70.49;97424.63;6101822;23;20187;-79
2022/03/19 08:35:01;;;;;;;44.97;30.03;;;;;;;4.42;69.82;97407.97;6078865;23;20181;-81
2022/03/19 08:37:27;;;;;;;48.53;30.13;;;;;;;4.49;70.59;97419.66;6104392;23;20168;-79
2022/03/19 08:42:38;;;;;;;41.70;25.60;;;;;;;4.54;67.84;97416.91;6104773;23;20154;-79
2022/03/19 08:45:03;;;;;;;42.47;28.93;;;;;;;4.63;68.08;97407.94;6100513;23;20172;-78
2022/03/19 08:47:29;;;;;;;40.33;27.13;;;;;;;4.73;66.81;97420.34;6106469;23;20177;-80
2022/03/19 08:49:55;;;;;;;43.90;27.97;;;;;;;5.01;66.22;97407.09;6104108;23;20145;-82
2022/03/19 08:52:20;;;;;;;41.70;27.00;;;;;;;5.09;65.34;97409.34;6076769;23;20184;-79
2022/03/19 08:54:45;;;;;;;45.60;28.53;;;;;;;5.19;65.70;97413.16;6100909;23;20199;-80
2022/03/19 08:57:11;;;;;;;39.50;27.60;;;;;;;5.01;65.24;97421.72;6102342;23;20553;-79
2022/03/19 08:59:37;;;;;;;41.93;27.83;;;;;;;5.19;64.11;97420.06;6078110;23;20161;-80
2022/03/19 09:02:02;;;;;;;43.63;27.47;;;;;;;5.23;63.79;97422.44;6075971;23;20167;-78
2022/03/19 09:04:27;;;;;;;37.13;26.93;;;;;;;5.19;63.69;97414.91;6096958;23;20673;-79
2022/03/19 09:06:53;;;;;;;42.97;27.07;;;;;;;5.56;63.95;97414.88;6075396;23;20194;-79
2022/03/19 09:09:19;;;;;;;42.13;28.17;;;;;;;5.51;62.07;97426.34;6099894;23;20603;-79
2022/03/19 09:11:45;;;;;;;40.83;26.27;;;;;;;5.55;61.16;97420.13;6122935;23;20156;-78
2022/03/19 09:14:11;;;;;;;40.00;26.97;;;;;;;5.92;62.08;97427.84;6075177;23;20497;-78
2022/03/19 09:16:37;;;;;;;39.97;27.47;;;;;;;5.89;60.79;97419.38;6100000;23;20941;-78
2022/03/19 09:19:03;;;;;;;45.07;27.00;;;;;;;5.81;60.08;97418.91;6122991;23;20190;-79
2022/03/19 09:21:29;;;;;;;44.37;25.90;;;;;;;5.84;60.31;97416.19;6098243;23;20410;-79
2022/03/19 09:23:57;;;;;;;38.03;26.50;;;;;;;6.15;61.72;97408.66;6098663;23;20172;-79
2022/03/19 09:26:23;;;;;;;35.80;25.63;;;;;;;6.46;61.25;97408.00;6073050;23;20627;-80
2022/03/19 09:28:48;;;;;;;42.70;27.67;;;;;;;6.66;60.28;97404.41;6098130;23;20156;-77
2022/03/19 09:31:16;;;;;;;36.60;25.17;;;;;;;6.58;58.25;97395.38;6102733;23;20603;-77
2022/03/19 09:33:42;;;;;;;42.17;27.67;;;;;;;6.52;58.82;97391.34;6080201;23;20496;-79
2022/03/19 09:36:07;;;;;;;38.50;26.67;;;;;;;6.69;60.24;97390.50;6104236;23;20160;-80
2022/03/19 09:38:32;;;;;;;39.90;27.67;;;;;;;6.63;58.72;97388.25;6074959;23;20168;-79
2022/03/19 09:40:58;;;;;;;42.50;30.00;;;;;;;6.59;57.70;97387.56;6073715;23;20683;-79
2022/03/19 09:43:24;;;;;;;39.67;27.53;;;;;;;6.56;57.48;97381.72;6096931;23;20235;-79
2022/03/19 09:45:50;;;;;;;38.33;26.90;;;;;;;6.69;58.48;97367.25;6073757;23;20161;-79
2022/03/19 09:48:16;;;;;;;40.43;26.63;;;;;;;6.86;58.36;97362.03;6098159;23;20164;-81
2022/03/19 09:50:41;;;;;;;41.40;26.40;;;;;;;6.82;57.58;97363.13;6098255;23;20588;-79
2022/03/19 09:53:08;;;;;;;39.47;27.77;;;;;;;6.88;56.98;97357.63;6072969;23;20160;-79
2022/03/19 09:55:38;;;;;;;36.87;25.47;;;;;;;6.79;56.75;97355.53;6073257;23;20224;-80
2022/03/19 09:58:04;;;;;;;41.13;27.93;;;;;;;6.91;57.67;97354.91;6097889;23;20152;-79
2022/03/19 10:00:30;;;;;;;41.30;27.60;;;;;;;6.89;57.73;97346.41;6073147;23;20171;-80
2022/03/19 10:03:01;;;;;;;40.07;27.13;;;;;;;6.99;57.43;97345.00;6072957;23;20195;-80
2022/03/19 10:11:08;;;;;;;38.63;26.03;;;;;;;7.04;56.95;97348.16;6119511;23;20148;-81
2022/03/19 10:13:45;;;;;;;43.30;27.30;;;;;;;7.08;56.05;97344.50;6073879;23;20622;-80
2022/03/19 10:16:26;;;;;;;40.43;27.47;;;;;;;6.99;56.84;97331.25;6098797;23;20141;-81
2022/03/19 10:19:01;;;;;;;39.20;27.23;;;;;;;6.77;57.05;97324.63;6098705;23;20141;-80
2022/03/19 10:21:27;;;;;;;41.73;27.50;;;;;;;6.98;56.86;97317.50;6097203;23;20144;-79
2022/03/19 10:23:53;;;;;;;40.23;27.93;;;;;;;6.96;57.12;97328.81;6073765;23;20176;-79
2022/03/19 10:26:22;;;;;;;39.77;27.93;;;;;;;7.19;57.12;97319.84;6074078;23;20260;-78
2022/03/19 10:28:58;;;;;;;43.90;29.47;;;;;;;7.32;58.06;97326.81;6099488;23;20226;-80
2022/03/19 10:31:35;;;;;;;44.50;30.77;;;;;;;7.47;58.23;97324.31;6099003;23;20180;-80
2022/03/19 10:34:01;;;;;;;42.83;30.07;;;;;;;7.45;57.10;97321.81;6098840;23;20200;-79
2022/03/19 10:36:34;;;;;;;46.07;30.10;;;;;;;7.17;57.94;97327.69;6098806;23;20216;-80
2022/03/19 10:39:05;;;;;;;41.63;29.27;;;;;;;7.39;57.83;97322.16;6099501;23;20483;-80
2022/03/19 10:41:34;;;;;;;41.47;30.23;;;;;;;7.43;57.90;97320.25;6074567;23;20176;-80
2022/03/19 10:44:18;;;;;;;44.43;32.33;;;;;;;7.52;57.77;97311.97;6076538;23;20180;-80
2022/03/19 10:46:54;;;;;;;47.57;32.03;;;;;;;7.69;58.80;97301.53;6075410;23;20184;-80
2022/03/19 10:49:21;;;;;;;45.57;31.60;;;;;;;7.97;57.10;97298.19;6099781;23;20160;-80
2022/03/19 10:51:49;;;;;;;40.50;30.03;;;;;;;8.15;56.28;97291.94;6074758;23;20168;-80
2022/03/19 10:54:15;;;;;;;47.13;32.97;;;;;;;8.10;56.81;97281.00;6100249;23;20176;-80
2022/03/19 10:56:42;;;;;;;44.60;31.30;;;;;;;8.21;57.20;97270.84;6075412;23;20149;-79
2022/03/19 10:59:08;;;;;;;41.87;31.83;;;;;;;8.16;57.30;97279.84;6099486;23;20207;-80
2022/03/19 11:01:37;;;;;;;46.57;33.07;;;;;;;7.84;58.04;97267.00;6098695;23;20179;-80
2022/03/19 11:04:04;;;;;;;48.27;31.93;;;;;;;7.49;58.22;97270.78;6075986;23;20527;-80
2022/03/19 11:06:36;;;;;;;49.30;33.80;;;;;;;7.35;57.98;97268.97;6099727;23;20187;-79
2022/03/19 11:09:09;;;;;;;49.93;34.30;;;;;;;7.46;58.61;97256.28;6074749;23;20157;-80
2022/03/19 11:11:39;;;;;;;43.17;30.43;;;;;;;7.65;58.25;97259.47;6075106;23;20207;-79
2022/03/19 11:14:05;;;;;;;46.50;31.40;;;;;;;7.56;57.84;97257.41;6075053;23;20227;-80
2022/03/19 11:16:35;;;;;;;43.13;30.40;;;;;;;7.58;57.67;97250.41;6098705;23;20164;-81
2022/03/19 11:19:02;;;;;;;43.70;31.20;;;;;;;7.49;58.14;97240.59;6074582;23;20164;-79
2022/03/19 11:21:30;;;;;;;43.13;30.13;;;;;;;7.40;58.39;97235.94;6073180;23;20164;-80
2022/03/19 11:24:04;;;;;;;41.43;29.20;;;;;;;7.50;57.13;97237.06;6097373;23;20236;-79
2022/03/19 11:26:30;;;;;;;44.43;30.23;;;;;;;7.79;56.97;97226.84;6073872;23;20259;-79
2022/03/19 11:28:56;;;;;;;47.47;30.67;;;;;;;8.27;57.17;97217.06;6097878;23;20645;-79
2022/03/19 11:31:25;;;;;;;42.27;28.80;;;;;;;8.48;54.47;97221.81;6072487;23;20161;-80
2022/03/19 11:33:51;;;;;;;43.13;27.70;;;;;;;8.65;54.25;97206.97;6073082;23;20215;-79
2022/03/19 11:36:16;;;;;;;39.40;28.80;;;;;;;8.83;53.58;97211.00;6073677;23;20160;-80
2022/03/19 11:38:50;;;;;;;41.57;29.27;;;;;;;8.79;52.13;97201.78;6097024;23;20156;-79
2022/03/19 11:41:27;;;;;;;40.67;28.17;;;;;;;8.89;53.16;97196.84;6097890;23;20173;-79